createdAt,value
2022-08-20T00:01:14.182Z,10.80
2022-08-20T00:03:44.832Z,10.85
2022-08-20T00:06:24.009Z,10.50
2022-08-20T00:08:51.295Z,9.85
2022-08-20T00:11:23.522Z,10.52
2022-08-20T00:13:57.711Z,10.70
2022-08-20T00:16:28.355Z,10.02
2022-08-20T00:18:55.554Z,10.95
2022-08-20T00:21:23.362Z,10.90
2022-08-20T00:23:55.603Z,10.75
2022-08-20T00:26:24.644Z,10.27
2022-08-20T00:28:52.150Z,11.25
2022-08-20T00:31:25.990Z,11.07
2022-08-20T00:33:53.657Z,11.27
2022-08-20T00:36:22.050Z,11.25
2022-08-20T00:38:59.437Z,13.45
2022-08-20T00:41:28.564Z,13.52
2022-08-20T00:44:10.320Z,14.80
2022-08-20T00:46:38.761Z,14.00
2022-08-20T00:49:09.592Z,14.07
2022-08-20T00:51:53.307Z,14.40
2022-08-20T00:54:38.251Z,17.55
2022-08-20T00:57:43.496Z,18.27
2022-08-20T01:00:25.051Z,17.17
2022-08-20T01:02:52.808Z,18.08
2022-08-20T01:05:21.389Z,16.85
2022-08-20T01:07:57.022Z,16.95
2022-08-20T01:10:29.768Z,16.90
2022-08-20T01:12:59.910Z,17.17
2022-08-20T01:15:31.963Z,17.63
2022-08-20T01:18:01.916Z,17.37
2022-08-20T01:20:36.792Z,17.10
2022-08-20T01:23:30.474Z,16.83
2022-08-20T01:26:22.709Z,20.45
2022-08-20T01:29:02.401Z,19.88
2022-08-20T01:31:34.193Z,19.17
2022-08-20T01:34:04.710Z,19.55
2022-08-20T01:36:46.423Z,20.10
2022-08-20T01:39:25.358Z,19.52
2022-08-20T01:41:52.314Z,19.45
2022-08-20T01:44:21.244Z,18.92
2022-08-20T01:46:51.914Z,18.70
2022-08-20T01:49:32.645Z,19.52
2022-08-20T01:52:07.552Z,18.15
2022-08-20T01:54:35.690Z,20.48
2022-08-20T01:57:17.547Z,20.35
2022-08-20T01:59:45.172Z,21.00
2022-08-20T02:02:13.259Z,21.13
2022-08-20T02:04:42.440Z,21.92
2022-08-20T02:07:16.873Z,19.05
2022-08-20T02:09:45.244Z,16.70
2022-08-20T02:12:14.399Z,15.05
2022-08-20T02:14:49.260Z,16.42
2022-08-20T02:17:18.168Z,17.27
2022-08-20T02:19:52.194Z,16.67
2022-08-20T02:22:35.944Z,17.55
2022-08-20T02:25:09.001Z,17.40
2022-08-20T02:27:38.728Z,20.73
2022-08-20T02:30:28.101Z,19.95
2022-08-20T02:32:58.656Z,19.95
2022-08-20T02:35:26.634Z,19.90
2022-08-20T02:37:54.653Z,20.60
2022-08-20T02:40:31.241Z,20.85
2022-08-20T02:43:00.876Z,20.17
2022-08-20T02:45:30.066Z,21.42
2022-08-20T02:47:59.042Z,20.92
2022-08-20T02:50:27.104Z,21.30
2022-08-20T02:52:54.500Z,24.20
2022-08-20T02:55:27.469Z,25.33
2022-08-20T02:58:00.230Z,23.02
2022-08-20T03:00:32.212Z,25.13
2022-08-20T03:03:08.340Z,23.13
2022-08-20T03:05:37.084Z,23.33
2022-08-20T03:08:09.426Z,22.95
2022-08-20T03:10:41.007Z,23.35
2022-08-20T03:13:12.399Z,23.25
2022-08-20T03:15:55.254Z,23.58
2022-08-20T03:18:29.184Z,22.13
2022-08-20T03:20:56.351Z,21.63
2022-08-20T03:23:24.378Z,21.73
2022-08-20T03:25:51.330Z,22.20
2022-08-20T03:28:19.641Z,21.70
2022-08-20T03:30:48.414Z,20.75
2022-08-20T03:33:16.448Z,20.10
2022-08-20T03:35:43.922Z,21.33
2022-08-20T03:38:14.458Z,21.42
2022-08-20T03:40:42.526Z,19.27
2022-08-20T03:43:10.668Z,19.20
2022-08-20T03:45:40.726Z,18.23
2022-08-20T03:48:15.170Z,18.17
2022-08-20T03:50:43.458Z,16.77
2022-08-20T03:53:14.746Z,16.40
2022-08-20T03:55:53.945Z,15.73
2022-08-20T03:58:22.181Z,15.75
2022-08-20T04:01:06.481Z,14.88
2022-08-20T04:03:34.564Z,14.25
2022-08-20T04:06:01.844Z,14.95
2022-08-20T04:08:30.394Z,14.45
2022-08-20T04:10:59.745Z,14.30
2022-08-20T04:13:29.985Z,14.25
2022-08-20T04:15:58.374Z,14.98
2022-08-20T04:18:26.552Z,14.55
2022-08-20T04:20:54.362Z,14.38
2022-08-20T04:23:22.679Z,15.02
2022-08-20T04:25:50.364Z,13.98
2022-08-20T04:28:28.270Z,15.25
2022-08-20T04:30:58.956Z,15.77
2022-08-20T04:33:34.186Z,14.65
2022-08-20T04:36:05.837Z,14.18
2022-08-20T04:38:47.917Z,14.93
2022-08-20T04:41:23.528Z,14.07
2022-08-20T04:43:54.047Z,13.98
2022-08-20T04:46:25.982Z,13.55
2022-08-20T04:48:54.018Z,14.60
2022-08-20T04:51:23.008Z,13.68
2022-08-20T04:53:53.687Z,14.80
2022-08-20T04:56:29.471Z,14.27
2022-08-20T04:59:00.470Z,13.73
2022-08-20T05:01:28.691Z,13.30
2022-08-20T05:03:57.612Z,13.98
2022-08-20T05:06:31.323Z,13.90
2022-08-20T05:09:00.837Z,13.30
2022-08-20T05:11:34.410Z,17.40
2022-08-20T05:14:07.889Z,12.50
2022-08-20T05:16:39.635Z,12.60
2022-08-20T05:19:11.329Z,11.93
2022-08-20T05:21:39.398Z,12.70
2022-08-20T05:24:07.786Z,11.63
2022-08-20T05:26:35.118Z,11.13
2022-08-20T05:29:05.080Z,12.13
2022-08-20T05:31:33.903Z,12.40
2022-08-20T05:46:16.682Z,10.77
2022-08-20T05:48:43.730Z,11.20
2022-08-20T05:51:15.021Z,11.30
2022-08-20T05:53:42.193Z,10.85
2022-08-20T05:56:11.244Z,10.15
2022-08-20T05:58:38.911Z,10.60
2022-08-20T06:01:06.204Z,12.20
2022-08-20T06:03:51.992Z,11.10
2022-08-20T06:06:44.755Z,11.98
2022-08-20T06:09:06.147Z,11.70
2022-08-20T06:11:37.294Z,11.57
2022-08-20T06:14:05.573Z,12.05
2022-08-20T06:16:32.761Z,13.48
2022-08-20T06:19:00.116Z,12.60
2022-08-20T06:21:30.149Z,12.93
2022-08-20T06:24:00.948Z,13.05
2022-08-20T06:26:31.107Z,12.87
2022-08-20T06:29:03.795Z,13.10
2022-08-20T06:31:30.858Z,12.95
2022-08-20T06:33:58.151Z,12.65
2022-08-20T06:36:25.250Z,11.77
2022-08-20T06:38:54.872Z,10.98
2022-08-20T06:41:21.928Z,10.88
2022-08-20T06:43:49.138Z,10.50
2022-08-20T06:46:16.262Z,9.95
2022-08-20T06:48:43.242Z,10.73
2022-08-20T06:51:10.362Z,11.43
2022-08-20T06:53:37.402Z,11.95
2022-08-20T06:56:04.757Z,11.80
2022-08-20T06:58:38.391Z,11.02
2022-08-20T07:01:13.750Z,11.95
2022-08-20T07:03:55.423Z,14.15
2022-08-20T07:06:25.638Z,11.20
2022-08-20T07:08:54.472Z,10.13
2022-08-20T07:11:27.061Z,11.52
2022-08-20T07:13:57.044Z,9.32
2022-08-20T07:16:25.599Z,10.55
2022-08-20T07:18:52.627Z,10.82
2022-08-20T07:21:19.795Z,10.13
2022-08-20T07:23:48.915Z,10.80
2022-08-20T07:26:16.476Z,10.75
2022-08-20T07:28:43.580Z,10.18
2022-08-20T07:31:30.509Z,10.18
2022-08-20T07:33:59.733Z,10.75
2022-08-20T07:36:28.173Z,10.82
2022-08-20T07:38:58.734Z,10.23
2022-08-20T07:41:26.019Z,10.05
2022-08-20T07:43:53.080Z,10.63
2022-08-20T07:46:21.610Z,10.55
2022-08-20T07:48:50.463Z,10.45
2022-08-20T07:51:22.679Z,10.10
2022-08-20T07:53:51.777Z,9.65
2022-08-20T07:56:24.522Z,10.63
2022-08-20T07:58:55.602Z,10.55
2022-08-20T08:01:28.671Z,10.05
2022-08-20T08:03:57.543Z,10.63
2022-08-20T08:06:30.494Z,10.93
2022-08-20T08:09:04.513Z,11.05
2022-08-20T08:11:37.899Z,10.50
2022-08-20T08:14:09.748Z,11.00
2022-08-20T08:16:38.228Z,10.07
2022-08-20T08:19:12.096Z,10.57
2022-08-20T08:21:39.316Z,11.65
2022-08-20T08:24:06.384Z,11.85
2022-08-20T08:26:33.467Z,10.88
2022-08-20T08:29:00.464Z,11.38
2022-08-20T08:31:27.532Z,11.65
2022-08-20T08:33:55.538Z,11.82
2022-08-20T08:36:22.528Z,12.55
2022-08-20T08:38:49.783Z,12.05
2022-08-20T08:41:39.604Z,12.68
2022-08-20T08:44:21.839Z,12.15
2022-08-20T08:46:56.867Z,12.82
2022-08-20T08:49:37.740Z,12.95
2022-08-20T08:52:22.340Z,13.90
2022-08-20T08:54:56.905Z,14.27
2022-08-20T08:57:25.098Z,15.18
2022-08-20T09:00:04.923Z,15.45
2022-08-20T09:02:34.935Z,15.07
2022-08-20T09:05:15.996Z,13.45
2022-08-20T09:07:49.690Z,13.30
2022-08-20T09:10:22.891Z,12.48
2022-08-20T09:12:52.023Z,12.18
2022-08-20T09:15:21.231Z,12.52
2022-08-20T09:17:48.433Z,12.73
2022-08-20T09:20:15.582Z,13.90
2022-08-20T09:22:42.560Z,12.77
2022-08-20T09:25:12.550Z,13.65
2022-08-20T09:27:41.506Z,12.93
2022-08-20T09:30:11.984Z,12.93
2022-08-20T09:32:39.118Z,15.38
2022-08-20T09:35:09.448Z,12.82
2022-08-20T09:37:38.097Z,14.25
2022-08-20T09:40:08.764Z,13.40
2022-08-20T09:42:41.309Z,12.82
2022-08-20T09:45:12.839Z,13.30
2022-08-20T09:47:46.838Z,11.73
2022-08-20T09:50:30.976Z,12.00
2022-08-20T09:53:01.202Z,12.43
2022-08-20T09:55:44.882Z,13.73
2022-08-20T09:58:14.886Z,12.98
2022-08-20T10:00:41.944Z,13.15
2022-08-20T10:03:08.860Z,12.70
2022-08-20T10:05:35.948Z,12.38
2022-08-20T10:08:07.911Z,12.77
2022-08-20T10:10:36.091Z,13.77
2022-08-20T10:13:03.317Z,14.38
2022-08-20T10:15:31.990Z,13.93
2022-08-20T10:18:04.126Z,14.50
2022-08-20T10:20:31.192Z,14.53
2022-08-20T10:22:58.376Z,14.40
2022-08-20T10:25:25.382Z,15.48
2022-08-20T10:27:52.740Z,14.68
2022-08-20T10:30:19.766Z,15.02
2022-08-20T10:32:47.601Z,15.18
2022-08-20T10:35:15.029Z,14.63
2022-08-20T10:37:42.061Z,14.65
2022-08-20T10:40:10.282Z,14.90
2022-08-20T10:42:41.926Z,15.27
2022-08-20T10:45:12.710Z,15.57
2022-08-20T10:47:40.402Z,14.90
2022-08-20T10:50:12.524Z,15.48
2022-08-20T10:52:40.148Z,17.52
2022-08-20T10:55:08.725Z,15.95
2022-08-20T10:57:38.546Z,14.93
2022-08-20T11:00:10.679Z,15.25
2022-08-20T11:02:38.260Z,16.13
2022-08-20T11:05:06.879Z,16.13
2022-08-20T11:07:50.569Z,31.13
2022-08-20T11:10:27.650Z,16.05
2022-08-20T11:12:55.430Z,16.27
2022-08-20T11:15:22.418Z,15.30
2022-08-20T11:17:49.457Z,15.27
2022-08-20T11:20:20.698Z,15.63
2022-08-20T11:22:48.246Z,14.10
2022-08-20T11:25:15.360Z,16.20
2022-08-20T11:27:46.404Z,14.95
2022-08-20T11:30:29.316Z,14.68
2022-08-20T11:32:57.786Z,15.02
2022-08-20T11:35:48.663Z,15.02
2022-08-20T11:38:14.379Z,16.70
2022-08-20T11:40:41.410Z,16.88
2022-08-20T11:43:14.521Z,16.80
2022-08-20T11:45:46.267Z,15.98
2022-08-20T11:48:13.889Z,15.50
2022-08-20T11:50:40.962Z,16.27
2022-08-20T11:53:08.164Z,15.73
2022-08-20T11:55:36.427Z,16.50
2022-08-20T11:58:04.466Z,15.68
2022-08-20T12:00:34.135Z,16.17
2022-08-20T12:03:05.027Z,16.40
2022-08-20T12:05:33.136Z,15.43
2022-08-20T12:08:03.894Z,15.77
2022-08-20T12:10:31.795Z,16.05
2022-08-20T12:12:59.401Z,18.13
2022-08-20T12:15:27.589Z,17.90
2022-08-20T12:17:55.937Z,19.25
2022-08-20T12:20:24.707Z,18.70
2022-08-20T12:22:53.948Z,17.80
2022-08-20T12:25:21.480Z,17.95
2022-08-20T12:27:48.483Z,17.52
2022-08-20T12:30:21.818Z,24.88
2022-08-20T12:32:49.376Z,27.92
2022-08-20T12:35:18.882Z,30.08
2022-08-20T12:37:47.202Z,29.98
2022-08-20T12:40:32.231Z,30.95
2022-08-20T12:43:02.601Z,33.75
2022-08-20T12:45:31.476Z,27.90
2022-08-20T12:48:12.271Z,29.55
2022-08-20T12:50:42.944Z,29.33
2022-08-20T12:53:10.160Z,28.20
2022-08-20T12:55:37.489Z,26.83
2022-08-20T12:58:09.330Z,27.08
2022-08-20T13:00:43.223Z,27.02
2022-08-20T13:03:12.917Z,26.33
2022-08-20T13:05:41.075Z,25.73
2022-08-20T13:08:11.693Z,25.08
2022-08-20T13:10:45.575Z,25.17
2022-08-20T13:13:17.423Z,25.33
2022-08-20T13:15:49.628Z,26.33
2022-08-20T13:18:16.895Z,29.48
2022-08-20T13:20:44.070Z,24.88
2022-08-20T13:23:11.089Z,24.83
2022-08-20T13:25:38.149Z,24.50
2022-08-20T13:28:05.999Z,25.10
2022-08-20T13:30:39.441Z,24.70
2022-08-20T13:33:06.619Z,25.85
2022-08-20T13:35:33.706Z,26.17
2022-08-20T13:38:00.974Z,26.33
2022-08-20T13:40:28.259Z,25.23
2022-08-20T13:42:55.401Z,24.60
2022-08-20T13:45:22.821Z,25.77
2022-08-20T13:47:55.565Z,25.58
2022-08-20T13:52:53.179Z,23.45
2022-08-20T13:55:24.459Z,23.70
2022-08-20T13:57:56.426Z,24.48
2022-08-20T14:00:32.536Z,23.30
2022-08-20T14:03:06.708Z,22.25
2022-08-20T14:05:34.848Z,22.88
2022-08-20T14:08:24.371Z,21.65
2022-08-20T14:10:51.900Z,22.00
2022-08-20T14:13:22.957Z,22.52
2022-08-20T14:15:50.776Z,23.52
2022-08-20T14:18:18.068Z,23.92
2022-08-20T14:20:45.868Z,25.45
2022-08-20T14:23:13.700Z,23.00
2022-08-20T14:25:41.496Z,23.55
2022-08-20T14:28:18.092Z,23.00
2022-08-20T14:30:53.076Z,23.02
2022-08-20T14:33:24.167Z,24.00
2022-08-20T14:35:52.121Z,23.92
2022-08-20T14:38:19.217Z,24.67
2022-08-20T14:40:47.313Z,28.25
2022-08-20T14:43:14.330Z,24.13
2022-08-20T14:45:41.371Z,26.08
2022-08-20T14:48:09.393Z,24.23
2022-08-20T14:50:38.026Z,23.58
2022-08-20T14:53:05.637Z,23.13
2022-08-20T14:55:37.602Z,23.65
2022-08-20T14:58:11.239Z,23.63
2022-08-20T15:00:39.076Z,22.75
2022-08-20T15:03:06.127Z,23.50
2022-08-20T15:05:33.584Z,22.35
2022-08-20T15:08:00.644Z,23.63
2022-08-20T15:10:31.933Z,22.15
2022-08-20T15:13:04.680Z,23.95
2022-08-20T15:18:06.785Z,22.65
2022-08-20T15:20:36.639Z,23.13
2022-08-20T15:23:06.333Z,21.38
2022-08-20T15:25:37.689Z,21.85
2022-08-20T15:28:09.059Z,22.95
2022-08-20T15:30:39.484Z,21.70
2022-08-20T15:33:07.570Z,21.85
2022-08-20T15:35:35.172Z,22.08
2022-08-20T15:38:02.341Z,21.23
2022-08-20T15:40:32.630Z,21.98
2022-08-20T15:43:02.654Z,22.00
2022-08-20T15:45:30.689Z,22.33
2022-08-20T15:48:13.323Z,21.10
2022-08-20T15:51:22.358Z,21.63
2022-08-20T15:54:13.935Z,22.27
2022-08-20T15:57:07.366Z,20.23
2022-08-20T16:00:24.451Z,19.83
2022-08-20T16:03:13.263Z,19.27
2022-08-20T16:06:23.585Z,20.50
2022-08-20T16:09:21.546Z,19.48
2022-08-20T16:12:07.708Z,21.73
2022-08-20T16:14:44.872Z,22.33
2022-08-20T16:17:22.764Z,20.60
2022-08-20T16:20:09.096Z,21.73
2022-08-20T16:22:43.353Z,21.02
2022-08-20T16:25:12.920Z,20.00
2022-08-20T16:28:28.206Z,19.27
2022-08-20T16:31:11.994Z,19.60
2022-08-20T16:34:34.074Z,19.50
2022-08-20T16:37:10.446Z,19.23
2022-08-20T16:40:15.489Z,18.52
2022-08-20T16:42:47.657Z,19.33
2022-08-20T16:45:33.690Z,18.02
2022-08-20T16:48:06.811Z,18.23
2022-08-20T16:51:03.110Z,17.88
2022-08-20T16:53:30.373Z,18.05
2022-08-20T16:55:57.600Z,16.25
2022-08-20T16:58:25.175Z,15.45
2022-08-20T17:01:07.924Z,15.82
2022-08-20T17:03:40.301Z,16.33
2022-08-20T17:08:53.883Z,15.90
2022-08-20T17:11:33.185Z,15.82
2022-08-20T17:14:18.204Z,16.30
2022-08-20T17:16:52.813Z,15.95
2022-08-20T17:19:31.182Z,15.57
2022-08-20T17:22:20.820Z,16.45
2022-08-20T17:24:50.031Z,15.82
2022-08-20T17:27:31.224Z,15.52
2022-08-20T17:30:20.100Z,14.15
2022-08-20T17:33:07.137Z,14.05
2022-08-20T17:35:44.121Z,13.77
2022-08-20T17:38:45.911Z,12.73
2022-08-20T17:41:31.429Z,13.15
2022-08-20T17:44:21.199Z,13.13
2022-08-20T17:46:50.569Z,13.82
2022-08-20T17:49:41.030Z,13.13
2022-08-20T17:52:28.061Z,14.07
2022-08-20T17:54:55.165Z,14.52
2022-08-20T17:57:33.187Z,13.73
2022-08-20T18:00:25.433Z,12.75
2022-08-20T18:03:01.238Z,11.90
2022-08-20T18:05:34.731Z,11.90
2022-08-20T18:08:13.925Z,11.43
2022-08-20T18:11:03.708Z,10.15
2022-08-20T18:14:19.885Z,10.88
2022-08-20T18:17:41.348Z,10.57
2022-08-20T18:20:16.656Z,11.98
2022-08-20T18:22:55.300Z,11.40
2022-08-20T18:25:26.423Z,10.45
2022-08-20T18:28:03.254Z,10.43
2022-08-20T18:30:33.044Z,11.15
2022-08-20T18:33:09.163Z,11.25
2022-08-20T18:35:46.256Z,11.60
2022-08-20T18:38:22.367Z,12.57
2022-08-20T18:40:54.588Z,15.20
2022-08-20T18:43:30.625Z,14.25
2022-08-20T18:46:12.187Z,13.60
2022-08-20T18:48:59.595Z,16.10
2022-08-20T18:51:50.014Z,16.75
2022-08-20T18:54:32.672Z,13.90
2022-08-20T18:57:24.211Z,13.65
2022-08-20T19:00:17.549Z,13.30
2022-08-20T19:03:14.076Z,13.68
2022-08-20T19:06:06.052Z,12.18
2022-08-20T19:09:05.025Z,13.85
2022-08-20T19:11:56.865Z,15.13
2022-08-20T19:14:58.593Z,15.23
2022-08-20T19:18:09.903Z,14.75
2022-08-20T19:20:57.960Z,13.07
2022-08-20T19:23:29.249Z,13.77
2022-08-20T19:26:03.961Z,15.48
2022-08-20T19:28:46.862Z,19.15
2022-08-20T19:31:27.361Z,23.67
2022-08-20T19:34:21.476Z,23.70
2022-08-20T19:37:50.813Z,21.77
2022-08-20T19:40:39.032Z,21.70
2022-08-20T19:43:16.397Z,22.08
2022-08-20T19:45:50.672Z,22.52
2022-08-20T19:48:41.894Z,24.35
2022-08-20T19:52:29.264Z,22.35
2022-08-20T19:55:02.824Z,24.50
2022-08-20T19:57:31.029Z,25.02
2022-08-20T20:00:12.896Z,28.73
2022-08-20T20:02:41.579Z,28.42
2022-08-20T20:05:11.261Z,26.30
2022-08-20T20:07:49.698Z,25.42
2022-08-20T20:10:35.495Z,26.70
2022-08-20T20:13:21.255Z,29.00
2022-08-20T20:15:55.036Z,29.88
2022-08-20T20:18:27.650Z,31.33
2022-08-20T20:21:41.190Z,31.98
2022-08-20T20:24:10.878Z,34.42
2022-08-20T20:26:42.175Z,36.20
2022-08-20T20:29:16.545Z,37.30
2022-08-20T20:32:00.147Z,38.80
2022-08-20T20:34:55.548Z,37.63
2022-08-20T20:37:50.124Z,40.88
2022-08-20T20:40:45.468Z,39.00
2022-08-20T20:43:30.552Z,39.75
2022-08-20T20:46:18.109Z,37.92
2022-08-20T20:49:08.411Z,41.03
2022-08-20T20:51:51.847Z,41.95
2022-08-20T20:54:30.604Z,41.28
2022-08-20T20:57:01.988Z,41.00
2022-08-20T20:59:32.070Z,44.00
2022-08-20T21:01:59.487Z,41.65
2022-08-20T21:04:27.217Z,42.10
2022-08-20T21:06:58.460Z,41.78
2022-08-20T21:09:25.944Z,42.58
2022-08-20T21:11:53.474Z,41.63
2022-08-20T21:14:20.667Z,42.60
2022-08-20T21:16:48.210Z,41.20
2022-08-20T21:19:19.954Z,44.17
2022-08-20T21:21:47.079Z,27.63
2022-08-20T21:24:14.274Z,17.25
2022-08-20T21:26:41.693Z,5.03
2022-08-20T21:29:13.298Z,5.78
2022-08-20T21:31:44.712Z,4.55
2022-08-20T21:34:15.798Z,3.60
2022-08-20T21:36:43.197Z,3.80
2022-08-20T21:39:11.108Z,3.53
2022-08-20T21:41:42.617Z,3.08
2022-08-20T21:44:27.308Z,3.60
2022-08-20T21:46:59.033Z,3.22
2022-08-20T21:49:31.970Z,3.60
2022-08-20T21:52:01.706Z,3.70
2022-08-20T21:54:31.904Z,3.88
2022-08-20T21:57:08.118Z,3.78
2022-08-20T21:59:38.468Z,4.28
2022-08-20T22:02:06.592Z,4.97
2022-08-20T22:04:35.616Z,4.63
2022-08-20T22:07:04.484Z,5.50
2022-08-20T22:09:34.394Z,4.30
2022-08-20T22:12:03.847Z,4.45
2022-08-20T22:14:31.429Z,5.03
2022-08-20T22:16:58.847Z,3.80
2022-08-20T22:19:25.908Z,4.88
2022-08-20T22:21:56.010Z,4.55
2022-08-20T22:24:25.956Z,5.03
2022-08-20T22:26:52.887Z,5.35
2022-08-20T22:29:20.024Z,10.45
2022-08-20T22:31:47.602Z,5.13
2022-08-20T22:34:18.415Z,4.10
2022-08-20T22:36:45.764Z,5.15
2022-08-20T22:39:12.950Z,4.65
2022-08-20T22:41:41.286Z,4.25
2022-08-20T22:44:08.433Z,4.68
2022-08-20T22:46:44.978Z,4.70
2022-08-20T22:49:21.259Z,4.03
2022-08-20T22:51:48.270Z,6.85
2022-08-20T22:54:22.501Z,7.20
2022-08-20T22:56:51.055Z,7.78
2022-08-20T22:59:19.897Z,7.10
2022-08-20T23:01:47.171Z,7.40
2022-08-20T23:04:29.247Z,10.50
2022-08-20T23:06:58.245Z,11.40
2022-08-20T23:09:27.241Z,9.95
2022-08-20T23:11:54.645Z,10.63
2022-08-20T23:14:22.105Z,10.30
2022-08-20T23:17:00.775Z,9.65
2022-08-20T23:19:28.135Z,9.10
2022-08-20T23:21:55.240Z,6.70
2022-08-20T23:24:22.828Z,6.35
2022-08-20T23:26:52.855Z,6.20
2022-08-20T23:29:25.890Z,6.30
2022-08-20T23:31:56.083Z,6.28
2022-08-20T23:34:24.895Z,6.22
2022-08-20T23:36:53.851Z,7.20
2022-08-20T23:39:21.093Z,8.98
2022-08-20T23:41:48.333Z,9.30
2022-08-20T23:44:26.458Z,9.65
2022-08-20T23:46:58.436Z,10.43
2022-08-20T23:49:27.780Z,11.93
2022-08-20T23:51:55.523Z,14.18
2022-08-20T23:54:22.618Z,12.20
2022-08-20T23:56:49.762Z,12.73
2022-08-20T23:59:17.223Z,11.70
